createdAt,value
2023-03-17T00:01:37.461Z,6.8
2023-03-17T00:06:55.962Z,6.8
2023-03-17T00:11:56.002Z,6.8
2023-03-17T00:17:37.436Z,6.8
2023-03-17T00:22:37.477Z,6.8
2023-03-17T00:27:49.014Z,6.8
2023-03-17T00:32:56.094Z,6.8
2023-03-17T00:38:37.464Z,6.8
2023-03-17T00:43:55.941Z,6.8
2023-03-17T00:48:55.935Z,6.8
2023-03-17T00:54:37.444Z,6.8
2023-03-17T00:59:55.965Z,6.8
2023-03-17T01:05:05.500Z,6.8
2023-03-17T01:10:37.457Z,6.8
2023-03-17T01:15:55.941Z,6.9
2023-03-17T01:20:55.963Z,6.8
2023-03-17T01:26:37.492Z,6.8
2023-03-17T01:31:55.977Z,6.9
2023-03-17T01:37:37.439Z,6.9
2023-03-17T01:42:37.513Z,6.8
2023-03-17T01:47:55.968Z,6.8
2023-03-17T01:53:14.510Z,6.9
2023-03-17T01:58:37.459Z,6.8
2023-03-17T02:03:55.928Z,6.8
2023-03-17T02:08:55.961Z,6.8
2023-03-17T02:14:37.462Z,6.8
2023-03-17T02:19:55.949Z,6.8
2023-03-17T02:25:37.426Z,6.8
2023-03-17T02:30:55.991Z,6.8
2023-03-17T02:36:37.504Z,6.8
2023-03-17T02:41:55.956Z,6.8
2023-03-17T02:47:37.467Z,6.8
2023-03-17T02:52:55.950Z,6.8
2023-03-17T02:57:55.982Z,6.8
2023-03-17T03:03:37.451Z,6.8
2023-03-17T03:08:37.441Z,6.7
2023-03-17T03:13:55.944Z,6.7
2023-03-17T03:18:56.003Z,6.7
2023-03-17T03:24:37.411Z,6.7
2023-03-17T03:29:37.422Z,6.7
2023-03-17T03:34:37.469Z,6.7
2023-03-17T03:39:37.451Z,6.6
2023-03-17T03:44:55.934Z,6.6
2023-03-17T03:49:55.984Z,6.6
2023-03-17T03:55:37.416Z,6.6
2023-03-17T04:00:37.427Z,6.6
2023-03-17T04:05:55.992Z,6.6
2023-03-17T04:11:37.420Z,6.6
2023-03-17T04:16:55.928Z,6.6
2023-03-17T04:22:37.430Z,6.6
2023-03-17T04:27:55.927Z,6.6
2023-03-17T04:32:55.964Z,6.7
2023-03-17T04:38:37.457Z,6.7
2023-03-17T04:43:55.935Z,6.7
2023-03-17T04:48:59.553Z,6.6
2023-03-17T04:54:37.473Z,6.7
2023-03-17T04:59:55.927Z,6.7
2023-03-17T05:04:55.951Z,6.7
2023-03-17T05:10:37.437Z,6.7
2023-03-17T05:15:55.955Z,6.7
2023-03-17T05:20:55.943Z,6.7
2023-03-17T05:25:55.992Z,6.7
2023-03-17T05:31:37.412Z,6.7
2023-03-17T05:36:37.433Z,6.7
2023-03-17T05:41:55.936Z,6.7
2023-03-17T05:46:55.955Z,6.7
2023-03-17T05:51:55.957Z,6.7
2023-03-17T05:57:37.472Z,6.7
2023-03-17T06:02:55.937Z,6.6
2023-03-17T06:07:56.675Z,6.6
2023-03-17T06:13:37.478Z,6.6
2023-03-17T06:18:55.967Z,6.7
2023-03-17T06:24:37.420Z,6.6
2023-03-17T06:29:55.941Z,6.6
2023-03-17T06:34:55.924Z,6.6
2023-03-17T06:39:55.929Z,6.7
2023-03-17T06:45:37.425Z,6.6
2023-03-17T06:50:37.415Z,6.6
2023-03-17T06:55:55.954Z,6.6
2023-03-17T07:01:37.500Z,6.6
2023-03-17T07:06:56.137Z,6.5
2023-03-17T07:11:55.960Z,6.6
2023-03-17T07:17:37.463Z,6.5
2023-03-17T07:22:55.948Z,6.5
2023-03-17T07:27:55.979Z,6.3
2023-03-17T07:33:37.408Z,6.4
2023-03-17T07:38:37.450Z,6.4
2023-03-17T07:43:37.412Z,6.3
2023-03-17T07:48:55.947Z,6.5
2023-03-17T07:54:37.395Z,6.2
2023-03-17T07:59:37.422Z,6.5
2023-03-17T08:04:37.462Z,6.4
2023-03-17T08:09:47.426Z,6.3
2023-03-17T08:14:55.968Z,6.3
2023-03-17T08:20:37.510Z,6.2
2023-03-17T08:25:55.943Z,6.4
2023-03-17T08:31:37.435Z,6.3
2023-03-17T08:36:37.487Z,6.4
2023-03-17T08:41:55.943Z,6.5
2023-03-17T08:47:37.455Z,6.1
2023-03-17T08:52:37.478Z,6.3
2023-03-17T08:57:55.952Z,6.2
2023-03-17T09:03:37.416Z,6.4
2023-03-17T09:08:37.520Z,6.3
2023-03-17T09:13:37.428Z,6.6
2023-03-17T09:18:55.976Z,6.5
2023-03-17T09:23:55.986Z,6.7
2023-03-17T09:29:37.439Z,6.4
2023-03-17T09:34:55.959Z,6.5
2023-03-17T09:40:37.433Z,6.5
2023-03-17T09:45:55.944Z,6.2
2023-03-17T09:51:37.433Z,6
2023-03-17T09:56:37.459Z,6.1
2023-03-17T10:01:56.065Z,6.5
2023-03-17T10:06:55.955Z,6.3
2023-03-17T10:12:37.452Z,6.4
2023-03-17T10:17:55.947Z,6.5
2023-03-17T10:22:55.994Z,6.3
2023-03-17T10:27:56.020Z,6.2
2023-03-17T10:33:37.423Z,6.3
2023-03-17T10:38:37.434Z,6.7
2023-03-17T10:43:56.000Z,6.5
2023-03-17T10:49:37.427Z,6.7
2023-03-17T10:54:37.458Z,6.7
2023-03-17T10:59:55.997Z,6.7
2023-03-17T11:05:39.015Z,6.6
2023-03-17T11:10:55.949Z,6.9
2023-03-17T11:15:56.065Z,6.6
2023-03-17T11:21:37.444Z,6.9
2023-03-17T11:26:37.456Z,6.6
2023-03-17T11:31:56.048Z,6.7
2023-03-17T11:37:37.450Z,6.3
2023-03-17T11:42:37.479Z,6.4
2023-03-17T11:47:55.996Z,6.5
2023-03-17T11:53:14.485Z,6.6
2023-03-17T11:58:37.790Z,6.6
2023-03-17T12:03:56.126Z,6.7
2023-03-17T12:08:55.960Z,6.7
2023-03-17T12:14:37.462Z,6.8
2023-03-17T12:19:37.516Z,6.7
2023-03-17T12:24:55.968Z,6.9
2023-03-17T12:29:55.969Z,6.7
2023-03-17T12:34:57.275Z,6.6
2023-03-17T12:40:37.440Z,6.7
2023-03-17T12:45:37.461Z,6.7
2023-03-17T12:50:37.498Z,6.9
2023-03-17T12:55:55.962Z,6.9
2023-03-17T13:00:55.979Z,6.7
2023-03-17T13:05:55.994Z,6.8
2023-03-17T13:11:37.454Z,6.9
2023-03-17T13:16:37.543Z,6.8
2023-03-17T13:21:56.017Z,6.8
2023-03-17T13:27:37.438Z,7
2023-03-17T13:32:37.641Z,6.8
2023-03-17T13:37:55.991Z,6.7
2023-03-17T13:42:55.983Z,6.9
2023-03-17T13:47:55.984Z,7.1
2023-03-17T13:53:37.586Z,6.9
2023-03-17T13:58:37.524Z,6.8
2023-03-17T14:03:56.040Z,7
2023-03-17T14:09:37.499Z,6.9
2023-03-17T14:14:55.947Z,6.8
2023-03-17T14:19:55.968Z,6.7
2023-03-17T14:24:56.060Z,6.7
2023-03-17T14:30:45.433Z,6.9
2023-03-17T14:35:56.228Z,7.1
2023-03-17T14:41:12.433Z,6.8
2023-03-17T14:46:37.464Z,6.8
2023-03-17T14:51:56.296Z,6.9
2023-03-17T14:57:37.495Z,6.9
2023-03-17T15:03:38.412Z,7
2023-03-17T15:08:45.172Z,6.9
2023-03-17T15:14:38.462Z,6.8
2023-03-17T15:19:38.397Z,6.9
2023-03-17T15:24:38.392Z,6.9
2023-03-17T15:29:38.460Z,6.9
2023-03-17T15:34:45.280Z,6.9
2023-03-17T15:39:46.024Z,6.9
2023-03-17T15:45:38.403Z,7
2023-03-17T15:50:38.444Z,6.9
2023-03-17T15:55:45.233Z,6.9
2023-03-17T16:00:45.630Z,6.9
2023-03-17T16:06:38.416Z,7
2023-03-17T16:11:40.426Z,6.9
2023-03-17T16:16:38.447Z,6.8
2023-03-17T16:21:45.724Z,7
2023-03-17T16:27:38.407Z,7.2
2023-03-17T16:32:46.087Z,7.4
2023-03-17T16:38:38.414Z,7.6
2023-03-17T16:43:38.410Z,7.3
2023-03-17T16:48:45.642Z,7.4
2023-03-17T16:54:38.482Z,7.2
2023-03-17T16:59:38.582Z,7.2
2023-03-17T17:04:46.188Z,7.1
2023-03-17T17:09:46.230Z,7.1
2023-03-17T17:15:38.503Z,7
2023-03-17T17:20:38.503Z,7.1
2023-03-17T17:25:46.165Z,7.1
2023-03-17T17:31:38.482Z,7.1
2023-03-17T17:36:38.430Z,7
2023-03-17T17:41:38.502Z,7
2023-03-17T17:46:46.019Z,6.9
2023-03-17T17:52:38.402Z,7
2023-03-17T17:57:38.459Z,7
2023-03-17T18:02:45.487Z,6.9
2023-03-17T18:07:45.788Z,6.9
2023-03-17T18:13:38.459Z,7.1
2023-03-17T18:18:45.272Z,7.2
2023-03-17T18:23:46.112Z,7.1
2023-03-17T18:29:38.435Z,7.3
2023-03-17T18:34:38.447Z,8.2
2023-03-17T18:39:38.482Z,9
2023-03-17T18:44:45.743Z,9
2023-03-17T18:50:38.678Z,9.1
2023-03-17T18:55:38.481Z,8.9
2023-03-17T19:00:45.300Z,9
2023-03-17T19:05:45.952Z,8.8
2023-03-17T19:11:38.500Z,9
2023-03-17T19:16:38.633Z,9.7
2023-03-17T19:21:45.196Z,10.5
2023-03-17T19:26:45.875Z,10.6
2023-03-17T19:32:38.560Z,10.8
2023-03-17T19:37:38.511Z,10.6
2023-03-17T19:42:45.789Z,10.7
2023-03-17T19:47:45.845Z,10.6
2023-03-17T19:53:45.439Z,10.7
2023-03-17T19:58:46.058Z,10.5
2023-03-17T20:04:38.568Z,10.4
2023-03-17T20:09:45.578Z,10.3
2023-03-17T20:15:38.536Z,10.2
2023-03-17T20:20:38.576Z,10.4
2023-03-17T20:25:45.231Z,10.4
2023-03-17T20:30:45.380Z,10.4
2023-03-17T20:36:38.507Z,10.6
2023-03-17T20:41:45.203Z,10.4
2023-03-17T20:46:45.736Z,10.5
2023-03-17T20:51:45.792Z,10.4
2023-03-17T20:56:46.040Z,10.4
2023-03-17T21:02:38.465Z,10.4
2023-03-17T21:07:45.309Z,10.6
2023-03-17T21:13:45.208Z,10.7
2023-03-17T21:18:46.147Z,10.7
2023-03-17T21:24:38.492Z,10.5
2023-03-17T21:29:38.510Z,10.5
2023-03-17T21:34:45.608Z,10.4
2023-03-17T21:40:38.473Z,10.3
2023-03-17T21:45:38.571Z,10.3
2023-03-17T21:50:38.698Z,10.2
2023-03-17T21:55:45.946Z,10.1
2023-03-17T22:01:38.576Z,10
2023-03-17T22:06:45.236Z,10
2023-03-17T22:11:45.417Z,10
2023-03-17T22:17:38.513Z,9.9
2023-03-17T22:22:38.528Z,9.7
2023-03-17T22:27:45.520Z,9.6
2023-03-17T22:33:38.485Z,9.5
2023-03-17T22:38:45.229Z,9.5
2023-03-17T22:43:45.709Z,9.6
2023-03-17T22:48:45.854Z,9.7
2023-03-17T22:54:38.506Z,9.7
2023-03-17T22:59:38.523Z,9.7
2023-03-17T23:04:45.749Z,9.6
2023-03-17T23:09:45.913Z,9.7
2023-03-17T23:14:46.194Z,9.6
2023-03-17T23:20:38.443Z,9.7
2023-03-17T23:25:38.474Z,9.6
2023-03-17T23:30:38.563Z,9.8
2023-03-17T23:35:45.396Z,9.6
2023-03-17T23:40:45.473Z,9.6
2023-03-17T23:46:38.549Z,9.7
2023-03-17T23:51:45.219Z,9.8
2023-03-17T23:56:45.522Z,9.8
